createdAt,value
2019-04-30T00:01:58.991Z,26.73
2019-04-30T00:05:02.024Z,24.03
2019-04-30T00:08:05.878Z,32.23
2019-04-30T00:11:10.899Z,32.93
2019-04-30T00:14:15.309Z,29.20
2019-04-30T00:17:19.734Z,31.87
2019-04-30T00:20:22.797Z,36.10
2019-04-30T00:23:29.312Z,31.40
2019-04-30T00:26:30.532Z,27.60
2019-04-30T00:29:33.418Z,36.93
2019-04-30T00:32:39.323Z,29.57
2019-04-30T00:35:41.065Z,31.30
2019-04-30T00:38:44.800Z,31.33
2019-04-30T00:41:47.796Z,34.87
2019-04-30T00:44:50.677Z,30.77
2019-04-30T00:47:53.535Z,39.60
2019-04-30T00:50:56.525Z,29.50
2019-04-30T00:53:59.497Z,30.83
2019-04-30T00:57:04.295Z,36.00
2019-04-30T01:00:09.588Z,31.20
2019-04-30T01:03:17.768Z,30.13
2019-04-30T01:06:24.688Z,36.40
2019-04-30T01:09:25.744Z,37.70
2019-04-30T01:12:33.981Z,32.60
2019-04-30T01:15:33.968Z,34.03
2019-04-30T01:18:36.830Z,39.27
2019-04-30T01:21:46.942Z,29.73
2019-04-30T01:24:46.207Z,32.30
2019-04-30T01:27:50.590Z,30.90
2019-04-30T01:30:53.838Z,30.97
2019-04-30T01:33:58.974Z,30.87
2019-04-30T01:37:02.008Z,48.87
2019-04-30T01:40:10.666Z,33.70
2019-04-30T01:43:10.126Z,34.00
2019-04-30T01:46:14.027Z,34.40
2019-04-30T01:49:20.008Z,30.63
2019-04-30T01:52:22.032Z,37.90
2019-04-30T01:55:44.499Z,30.23
2019-04-30T01:59:00.854Z,35.53
2019-04-30T02:02:03.836Z,31.10
2019-04-30T02:05:08.810Z,31.07
2019-04-30T02:08:11.776Z,36.13
2019-04-30T02:11:14.650Z,30.93
2019-04-30T02:14:18.968Z,34.30
2019-04-30T02:17:21.882Z,30.60
2019-04-30T02:20:25.237Z,38.37
2019-04-30T02:23:29.768Z,33.17
2019-04-30T02:26:32.799Z,32.43
2019-04-30T02:29:35.675Z,32.50
2019-04-30T02:32:39.560Z,33.97
2019-04-30T02:36:10.361Z,27.20
2019-04-30T02:39:13.463Z,27.40
2019-04-30T02:42:20.223Z,33.37
2019-04-30T02:45:23.401Z,28.60
2019-04-30T02:48:29.885Z,45.13
2019-04-30T02:51:35.071Z,36.80
2019-04-30T02:54:41.361Z,51.40
2019-04-30T02:57:44.559Z,36.10
2019-04-30T03:00:49.579Z,31.97
2019-04-30T03:03:52.191Z,39.37
2019-04-30T03:06:55.947Z,32.87
2019-04-30T03:09:59.851Z,34.67
2019-04-30T03:13:03.008Z,47.90
2019-04-30T03:16:06.250Z,36.10
2019-04-30T03:19:19.692Z,36.87
2019-04-30T03:22:25.271Z,33.80
2019-04-30T03:25:29.890Z,29.13
2019-04-30T03:28:32.936Z,48.83
2019-04-30T03:31:35.841Z,29.43
2019-04-30T03:34:41.967Z,36.07
2019-04-30T03:37:43.832Z,33.00
2019-04-30T03:40:50.094Z,29.87
2019-04-30T03:43:51.878Z,38.60
2019-04-30T03:46:54.738Z,41.63
2019-04-30T03:50:00.037Z,35.63
2019-04-30T03:53:02.955Z,28.37
2019-04-30T03:56:06.050Z,32.90
2019-04-30T03:59:10.608Z,29.97
2019-04-30T04:02:25.474Z,34.97
2019-04-30T04:05:49.773Z,29.17
2019-04-30T04:09:00.103Z,29.00
2019-04-30T04:12:20.830Z,31.10
2019-04-30T04:15:23.726Z,29.70
2019-04-30T04:18:26.636Z,37.13
2019-04-30T04:21:29.968Z,26.60
2019-04-30T04:24:33.106Z,33.63
2019-04-30T04:27:35.972Z,30.40
2019-04-30T04:30:39.765Z,25.63
2019-04-30T04:33:43.608Z,32.43
2019-04-30T04:36:46.478Z,30.83
2019-04-30T04:39:50.688Z,33.20
2019-04-30T04:42:53.648Z,28.57
2019-04-30T04:45:59.290Z,29.43
2019-04-30T04:49:01.381Z,38.77
2019-04-30T04:52:04.258Z,23.60
2019-04-30T04:55:09.781Z,31.13
2019-04-30T04:58:12.889Z,30.57
2019-04-30T05:01:15.994Z,28.40
2019-04-30T05:04:20.044Z,32.13
2019-04-30T05:07:23.160Z,30.70
2019-04-30T05:10:26.048Z,29.40
2019-04-30T05:13:29.116Z,29.07
2019-04-30T05:16:32.183Z,24.70
2019-04-30T05:19:35.046Z,31.73
2019-04-30T05:22:38.940Z,35.40
2019-04-30T05:25:41.957Z,33.87
2019-04-30T05:28:45.245Z,35.33
2019-04-30T05:31:48.569Z,29.63
2019-04-30T05:34:51.601Z,40.80
2019-04-30T05:37:54.496Z,27.60
2019-04-30T05:40:59.421Z,35.07
2019-04-30T05:44:02.473Z,22.37
2019-04-30T05:47:05.345Z,34.57
2019-04-30T05:50:08.969Z,30.00
2019-04-30T05:53:12.215Z,39.13
2019-04-30T05:56:15.420Z,28.83
2019-04-30T05:59:20.453Z,35.80
2019-04-30T06:02:23.150Z,29.30
2019-04-30T06:05:26.010Z,28.13
2019-04-30T06:08:36.422Z,36.30
2019-04-30T06:12:06.069Z,30.20
2019-04-30T06:15:31.576Z,30.17
2019-04-30T06:18:35.910Z,31.50
2019-04-30T06:21:39.129Z,37.93
2019-04-30T06:24:41.995Z,32.53
2019-04-30T06:27:45.167Z,40.60
2019-04-30T06:30:49.248Z,29.90
2019-04-30T06:33:52.426Z,37.93
2019-04-30T06:36:57.132Z,28.60
2019-04-30T06:40:00.431Z,49.27
2019-04-30T06:43:03.292Z,28.40
2019-04-30T06:46:06.282Z,40.47
2019-04-30T06:49:09.961Z,35.53
2019-04-30T06:52:20.710Z,46.83
2019-04-30T06:55:19.319Z,23.67
2019-04-30T06:58:22.330Z,37.60
2019-04-30T07:01:26.375Z,32.47
2019-04-30T07:04:29.430Z,30.77
2019-04-30T07:07:38.968Z,34.23
2019-04-30T07:10:37.964Z,29.00
2019-04-30T07:13:44.131Z,25.07
2019-04-30T07:16:46.997Z,24.10
2019-04-30T07:19:55.724Z,30.20
2019-04-30T07:23:00.792Z,23.93
2019-04-30T07:25:59.436Z,24.17
2019-04-30T07:29:02.725Z,25.07
2019-04-30T07:32:05.642Z,24.23
2019-04-30T07:35:09.538Z,28.83
2019-04-30T07:38:12.597Z,19.70
2019-04-30T07:41:15.491Z,25.27
2019-04-30T07:44:31.242Z,26.00
2019-04-30T07:47:23.146Z,29.10
2019-04-30T07:50:26.582Z,23.17
2019-04-30T07:53:30.935Z,25.07
2019-04-30T07:56:38.007Z,29.23
2019-04-30T07:59:39.653Z,24.87
2019-04-30T08:02:50.611Z,26.83
2019-04-30T08:05:55.562Z,29.63
2019-04-30T08:09:00.814Z,37.90
2019-04-30T08:12:03.559Z,35.83
2019-04-30T08:15:07.037Z,28.13
2019-04-30T08:18:09.932Z,32.10
2019-04-30T08:21:12.798Z,22.83
2019-04-30T08:24:15.729Z,25.23
2019-04-30T08:27:19.741Z,20.90
2019-04-30T08:30:26.776Z,24.97
2019-04-30T08:33:29.255Z,29.90
2019-04-30T08:36:33.168Z,28.40
2019-04-30T08:39:36.594Z,30.57
2019-04-30T08:42:40.405Z,25.87
2019-04-30T08:45:43.450Z,28.13
2019-04-30T08:48:51.605Z,33.23
2019-04-30T08:51:51.266Z,27.23
2019-04-30T08:54:54.363Z,30.03
2019-04-30T08:58:07.532Z,34.90
2019-04-30T09:01:02.014Z,35.13
2019-04-30T09:04:07.461Z,35.57
2019-04-30T09:07:10.242Z,33.63
2019-04-30T09:10:13.284Z,41.17
2019-04-30T09:13:16.320Z,34.33
2019-04-30T09:16:19.564Z,42.93
2019-04-30T09:19:24.486Z,37.70
2019-04-30T09:22:29.244Z,36.23
2019-04-30T09:25:32.818Z,38.90
2019-04-30T09:28:35.719Z,32.43
2019-04-30T09:31:40.778Z,27.40
2019-04-30T09:34:43.502Z,26.20
2019-04-30T09:37:46.427Z,32.20
2019-04-30T09:40:50.718Z,25.27
2019-04-30T09:43:53.867Z,32.53
2019-04-30T09:46:58.720Z,26.93
2019-04-30T09:50:01.626Z,22.60
2019-04-30T09:53:04.638Z,38.07
2019-04-30T09:56:09.436Z,26.03
2019-04-30T09:59:12.381Z,25.10
2019-04-30T10:02:15.328Z,22.60
2019-04-30T10:05:19.898Z,25.80
2019-04-30T10:08:23.793Z,30.60
2019-04-30T10:11:41.351Z,30.90
2019-04-30T10:14:44.369Z,30.33
2019-04-30T10:17:47.697Z,28.30
2019-04-30T10:20:53.929Z,25.07
2019-04-30T10:24:10.424Z,21.93
2019-04-30T10:27:02.105Z,60.13
2019-04-30T10:30:09.377Z,23.30
2019-04-30T10:33:12.412Z,22.70
2019-04-30T10:36:15.329Z,20.83
2019-04-30T10:39:21.427Z,18.93
2019-04-30T10:42:23.089Z,19.30
2019-04-30T10:45:25.994Z,18.30
2019-04-30T10:48:28.922Z,21.13
2019-04-30T10:51:31.838Z,20.10
2019-04-30T10:54:34.765Z,19.20
2019-04-30T10:57:39.595Z,22.97
2019-04-30T11:00:43.845Z,36.63
2019-04-30T11:03:46.767Z,18.77
2019-04-30T11:06:49.680Z,18.47
2019-04-30T11:09:52.612Z,15.00
2019-04-30T11:12:55.532Z,17.97
2019-04-30T11:16:02.620Z,12.20
2019-04-30T11:19:04.239Z,16.27
2019-04-30T11:22:07.378Z,13.80
2019-04-30T11:25:10.666Z,20.40
2019-04-30T11:28:14.413Z,19.13
2019-04-30T11:31:33.747Z,22.80
2019-04-30T11:34:36.883Z,32.20
2019-04-30T11:37:40.905Z,16.20
2019-04-30T11:40:43.817Z,15.00
2019-04-30T11:43:46.763Z,17.60
2019-04-30T11:47:38.463Z,19.60
2019-04-30T11:50:41.888Z,19.30
2019-04-30T11:53:44.794Z,16.60
2019-04-30T11:56:50.265Z,19.40
2019-04-30T11:59:52.777Z,15.60
2019-04-30T12:02:55.797Z,18.13
2019-04-30T12:05:59.108Z,18.57
2019-04-30T12:09:10.106Z,15.97
2019-04-30T12:12:14.816Z,18.40
2019-04-30T12:15:19.310Z,12.40
2019-04-30T12:18:22.366Z,28.13
2019-04-30T12:21:25.328Z,13.93
2019-04-30T12:24:30.272Z,25.53
2019-04-30T12:27:33.982Z,19.80
2019-04-30T12:30:39.019Z,13.43
2019-04-30T12:33:41.734Z,14.27
2019-04-30T12:36:44.655Z,12.33
2019-04-30T12:39:49.032Z,16.20
2019-04-30T12:42:52.435Z,17.67
2019-04-30T12:46:02.677Z,16.20
2019-04-30T12:49:10.401Z,16.87
2019-04-30T12:52:19.641Z,21.07
2019-04-30T12:55:49.037Z,20.10
2019-04-30T12:58:52.057Z,12.57
2019-04-30T13:01:54.972Z,15.63
2019-04-30T13:05:00.267Z,16.87
2019-04-30T13:08:03.439Z,18.00
2019-04-30T13:11:07.369Z,17.10
2019-04-30T13:14:12.046Z,18.37
2019-04-30T13:17:15.421Z,14.20
2019-04-30T13:20:23.426Z,14.93
2019-04-30T13:23:23.297Z,9.03
2019-04-30T13:26:26.215Z,8.90
2019-04-30T13:29:34.699Z,15.47
2019-04-30T13:32:44.559Z,21.33
2019-04-30T13:35:48.889Z,12.23
2019-04-30T13:38:57.255Z,13.33
2019-04-30T13:42:15.835Z,14.20
2019-04-30T13:45:12.299Z,13.40
2019-04-30T13:48:15.527Z,13.30
2019-04-30T13:51:18.443Z,8.90
2019-04-30T13:54:21.384Z,14.00
2019-04-30T13:57:24.315Z,13.30
2019-04-30T14:00:29.706Z,15.07
2019-04-30T14:03:39.061Z,14.53
2019-04-30T14:06:52.848Z,11.50
2019-04-30T14:09:56.388Z,10.47
2019-04-30T14:13:01.036Z,11.70
2019-04-30T14:16:04.505Z,9.57
2019-04-30T14:19:08.520Z,15.90
2019-04-30T14:22:12.163Z,11.37
2019-04-30T14:25:15.301Z,10.60
2019-04-30T14:28:19.134Z,30.13
2019-04-30T14:31:22.218Z,12.23
2019-04-30T14:34:25.148Z,10.80
2019-04-30T14:37:29.404Z,12.17
2019-04-30T14:40:33.489Z,8.53
2019-04-30T14:43:51.418Z,9.97
2019-04-30T14:47:12.365Z,10.60
2019-04-30T14:50:18.615Z,11.70
2019-04-30T14:53:42.203Z,13.20
2019-04-30T14:56:52.258Z,11.47
2019-04-30T15:00:14.373Z,11.93
2019-04-30T15:03:19.389Z,11.93
2019-04-30T15:06:22.421Z,11.43
2019-04-30T15:09:25.455Z,10.50
2019-04-30T15:12:28.370Z,12.00
2019-04-30T15:15:31.308Z,10.70
2019-04-30T15:18:34.315Z,15.80
2019-04-30T15:21:37.241Z,15.67
2019-04-30T15:24:40.349Z,13.00
2019-04-30T15:27:47.109Z,8.33
2019-04-30T15:30:48.815Z,12.70
2019-04-30T15:34:02.915Z,12.73
2019-04-30T15:37:18.240Z,9.70
2019-04-30T15:40:10.783Z,11.73
2019-04-30T15:43:13.727Z,11.83
2019-04-30T15:46:16.783Z,13.80
2019-04-30T15:49:19.736Z,10.33
2019-04-30T15:52:22.653Z,14.33
2019-04-30T15:55:25.568Z,12.80
2019-04-30T15:58:30.573Z,11.40
2019-04-30T16:01:33.528Z,9.33
2019-04-30T16:04:59.858Z,11.73
2019-04-30T16:08:19.218Z,8.47
2019-04-30T16:11:31.448Z,13.20
2019-04-30T16:14:36.102Z,17.10
2019-04-30T16:17:42.125Z,9.97
2019-04-30T16:20:45.063Z,12.60
2019-04-30T16:23:49.016Z,11.13
2019-04-30T16:26:52.890Z,15.90
2019-04-30T16:29:55.955Z,19.93
2019-04-30T16:32:59.703Z,19.80
2019-04-30T16:36:02.853Z,13.53
2019-04-30T16:39:08.782Z,22.97
2019-04-30T16:42:12.999Z,16.10
2019-04-30T16:45:16.004Z,15.17
2019-04-30T16:48:19.330Z,17.70
2019-04-30T16:51:22.447Z,13.97
2019-04-30T16:54:25.386Z,17.40
2019-04-30T16:57:30.296Z,15.90
2019-04-30T17:00:34.041Z,21.30
2019-04-30T17:03:40.780Z,20.10
2019-04-30T17:06:49.240Z,16.57
2019-04-30T17:10:03.051Z,18.30
2019-04-30T17:13:13.200Z,20.23
2019-04-30T17:16:19.544Z,20.77
2019-04-30T17:19:22.611Z,18.80
2019-04-30T17:22:25.519Z,21.63
2019-04-30T17:25:28.451Z,19.90
2019-04-30T17:28:31.412Z,19.97
2019-04-30T17:31:34.333Z,20.80
2019-04-30T17:34:38.927Z,21.23
2019-04-30T17:37:42.076Z,20.73
2019-04-30T17:40:44.951Z,20.03
2019-04-30T17:43:49.448Z,24.53
2019-04-30T17:46:52.594Z,22.97
2019-04-30T17:49:55.540Z,20.13
2019-04-30T17:53:00.429Z,25.20
2019-04-30T17:56:03.604Z,37.10
2019-04-30T17:59:06.647Z,18.07
2019-04-30T18:02:11.460Z,19.27
2019-04-30T18:05:14.606Z,22.67
2019-04-30T18:08:18.127Z,20.50
2019-04-30T18:11:21.509Z,18.30
2019-04-30T18:14:24.795Z,21.80
2019-04-30T18:17:27.696Z,20.87
2019-04-30T18:20:36.871Z,20.60
2019-04-30T18:24:01.152Z,23.93
2019-04-30T18:27:12.519Z,20.30
2019-04-30T18:30:18.997Z,16.83
2019-04-30T18:33:23.992Z,21.67
2019-04-30T18:36:27.207Z,24.90
2019-04-30T18:39:30.243Z,20.17
2019-04-30T18:42:33.276Z,19.70
2019-04-30T18:45:36.430Z,25.47
2019-04-30T18:48:39.458Z,21.43
2019-04-30T18:51:42.898Z,21.90
2019-04-30T18:54:47.201Z,21.80
2019-04-30T18:57:56.854Z,20.87
2019-04-30T19:00:56.951Z,20.10
2019-04-30T19:04:01.185Z,21.77
2019-04-30T19:07:18.006Z,20.53
2019-04-30T19:10:51.144Z,17.93
2019-04-30T19:14:12.506Z,16.17
2019-04-30T19:17:33.611Z,25.87
2019-04-30T19:20:49.733Z,21.07
2019-04-30T19:23:52.607Z,21.27
2019-04-30T19:26:55.542Z,17.43
2019-04-30T19:29:59.418Z,18.47
2019-04-30T19:33:02.507Z,18.70
2019-04-30T19:36:06.063Z,17.10
2019-04-30T19:39:11.120Z,19.27
2019-04-30T19:42:14.348Z,22.10
2019-04-30T19:45:17.455Z,15.70
2019-04-30T19:48:20.739Z,20.17
2019-04-30T19:51:23.675Z,18.40
2019-04-30T19:54:26.583Z,20.00
2019-04-30T19:57:29.509Z,15.10
2019-04-30T20:00:32.435Z,16.23
2019-04-30T20:03:35.364Z,19.70
2019-04-30T20:06:38.697Z,16.00
2019-04-30T20:09:43.165Z,21.80
2019-04-30T20:12:46.317Z,19.13
2019-04-30T20:15:49.482Z,16.47
2019-04-30T20:18:52.467Z,17.50
2019-04-30T20:21:55.389Z,17.20
2019-04-30T20:24:59.311Z,19.83
2019-04-30T20:28:02.332Z,15.23
2019-04-30T20:31:05.235Z,20.67
2019-04-30T20:34:09.224Z,19.93
2019-04-30T20:37:12.279Z,19.03
2019-04-30T20:40:18.546Z,17.27
2019-04-30T20:43:21.655Z,16.13
2019-04-30T20:46:34.665Z,16.37
2019-04-30T20:49:30.597Z,31.70
2019-04-30T20:52:33.882Z,16.57
2019-04-30T20:55:38.823Z,22.80
2019-04-30T20:58:54.587Z,22.43
2019-04-30T21:01:46.442Z,20.83
2019-04-30T21:04:49.368Z,17.80
2019-04-30T21:07:52.301Z,18.07
2019-04-30T21:10:55.235Z,23.70
2019-04-30T21:13:59.059Z,28.33
2019-04-30T21:17:02.115Z,18.73
2019-04-30T21:20:06.760Z,19.33
2019-04-30T21:23:09.683Z,21.60
2019-04-30T21:26:12.624Z,17.07
2019-04-30T21:29:18.733Z,21.03
2019-04-30T21:32:38.757Z,23.47
2019-04-30T21:35:50.965Z,21.13
2019-04-30T21:38:53.967Z,21.67
2019-04-30T21:41:56.900Z,18.60
2019-04-30T21:44:59.824Z,15.80
2019-04-30T21:48:02.962Z,21.27
2019-04-30T21:51:05.900Z,20.67
2019-04-30T21:54:08.823Z,20.13
2019-04-30T21:57:12.084Z,20.33
2019-04-30T22:00:24.176Z,19.77
2019-04-30T22:03:29.354Z,18.53
2019-04-30T22:06:32.420Z,19.30
2019-04-30T22:09:35.348Z,17.60
2019-04-30T22:12:38.969Z,18.63
2019-04-30T22:15:41.910Z,23.47
2019-04-30T22:18:45.167Z,34.43
2019-04-30T22:21:49.605Z,19.37
2019-04-30T22:24:52.618Z,17.60
2019-04-30T22:27:55.518Z,18.90
2019-04-30T22:30:58.612Z,19.37
2019-04-30T22:34:01.597Z,21.30
2019-04-30T22:37:04.501Z,21.73
2019-04-30T22:40:09.349Z,17.07
2019-04-30T22:43:12.440Z,22.80
2019-04-30T22:46:16.885Z,22.90
2019-04-30T22:49:19.781Z,18.93
2019-04-30T22:52:22.696Z,18.80
2019-04-30T22:55:26.722Z,25.57
2019-04-30T22:58:29.618Z,21.07
2019-04-30T23:01:52.148Z,24.87
2019-04-30T23:04:55.697Z,27.60
2019-04-30T23:07:59.007Z,24.40
2019-04-30T23:11:01.947Z,22.43
2019-04-30T23:14:04.891Z,17.70
2019-04-30T23:17:07.915Z,20.43
2019-04-30T23:20:11.419Z,20.37
2019-04-30T23:23:14.350Z,22.73
2019-04-30T23:26:17.268Z,17.03
2019-04-30T23:29:20.191Z,26.40
2019-04-30T23:32:23.120Z,22.53
2019-04-30T23:35:26.040Z,29.27
2019-04-30T23:38:28.972Z,23.33
2019-04-30T23:41:31.905Z,23.57
2019-04-30T23:44:34.816Z,18.67
2019-04-30T23:47:37.747Z,26.83
2019-04-30T23:50:41.000Z,26.40
2019-04-30T23:53:43.916Z,24.67
2019-04-30T23:56:46.837Z,25.23
2019-04-30T23:59:49.738Z,25.07
